sensor_id;sensor_type;location;lat;lon;timestamp;P1;durP1;ratioP1;P2;durP2;ratioP2
13469;SDS011;6807;48.682;9.032;2023-04-25T00:00:01;5.88;;;3.25;;
13469;SDS011;6807;48.682;9.032;2023-04-25T00:02:31;5.50;;;2.88;;
13469;SDS011;6807;48.682;9.032;2023-04-25T00:05:01;5.03;;;2.67;;
13469;SDS011;6807;48.682;9.032;2023-04-25T00:07:28;3.78;;;2.55;;
13469;SDS011;6807;48.682;9.032;2023-04-25T00:09:56;3.78;;;3.17;;
13469;SDS011;6807;48.682;9.032;2023-04-25T00:12:23;2.97;;;2.72;;
13469;SDS011;6807;48.682;9.032;2023-04-25T00:14:50;2.78;;;2.58;;
13469;SDS011;6807;48.682;9.032;2023-04-25T00:17:17;3.13;;;2.80;;
13469;SDS011;6807;48.682;9.032;2023-04-25T00:19:44;3.55;;;2.60;;
13469;SDS011;6807;48.682;9.032;2023-04-25T00:22:13;4.22;;;2.50;;
13469;SDS011;6807;48.682;9.032;2023-04-25T00:24:40;3.22;;;2.40;;
13469;SDS011;6807;48.682;9.032;2023-04-25T00:27:07;3.13;;;2.50;;
13469;SDS011;6807;48.682;9.032;2023-04-25T00:29:34;3.85;;;2.55;;
13469;SDS011;6807;48.682;9.032;2023-04-25T00:32:01;2.80;;;2.50;;
13469;SDS011;6807;48.682;9.032;2023-04-25T00:34:28;2.92;;;2.55;;
13469;SDS011;6807;48.682;9.032;2023-04-25T00:36:55;3.13;;;2.30;;
13469;SDS011;6807;48.682;9.032;2023-04-25T00:39:24;3.10;;;2.72;;
13469;SDS011;6807;48.682;9.032;2023-04-25T00:41:51;4.00;;;2.70;;
13469;SDS011;6807;48.682;9.032;2023-04-25T00:44:19;3.30;;;2.40;;
13469;SDS011;6807;48.682;9.032;2023-04-25T00:46:46;2.80;;;2.50;;
13469;SDS011;6807;48.682;9.032;2023-04-25T00:49:14;4.55;;;2.60;;
13469;SDS011;6807;48.682;9.032;2023-04-25T00:51:42;3.13;;;2.60;;
13469;SDS011;6807;48.682;9.032;2023-04-25T00:54:10;2.80;;;2.55;;
13469;SDS011;6807;48.682;9.032;2023-04-25T00:56:39;4.45;;;2.50;;
13469;SDS011;6807;48.682;9.032;2023-04-25T00:59:07;3.92;;;2.58;;
13469;SDS011;6807;48.682;9.032;2023-04-25T01:01:35;3.05;;;2.75;;
13469;SDS011;6807;48.682;9.032;2023-04-25T01:04:02;2.85;;;2.47;;
13469;SDS011;6807;48.682;9.032;2023-04-25T01:06:30;3.58;;;2.70;;
13469;SDS011;6807;48.682;9.032;2023-04-25T01:08:57;3.38;;;2.42;;
13469;SDS011;6807;48.682;9.032;2023-04-25T01:11:25;2.55;;;2.35;;
13469;SDS011;6807;48.682;9.032;2023-04-25T01:13:54;3.67;;;2.50;;
13469;SDS011;6807;48.682;9.032;2023-04-25T01:16:21;3.35;;;2.45;;
13469;SDS011;6807;48.682;9.032;2023-04-25T01:18:49;4.97;;;2.25;;
13469;SDS011;6807;48.682;9.032;2023-04-25T01:21:18;3.35;;;3.05;;
13469;SDS011;6807;48.682;9.032;2023-04-25T01:23:45;3.05;;;2.75;;
13469;SDS011;6807;48.682;9.032;2023-04-25T01:26:13;3.78;;;2.55;;
13469;SDS011;6807;48.682;9.032;2023-04-25T01:28:40;4.93;;;3.10;;
13469;SDS011;6807;48.682;9.032;2023-04-25T01:31:08;3.08;;;2.40;;
13469;SDS011;6807;48.682;9.032;2023-04-25T01:33:35;4.60;;;2.50;;
13469;SDS011;6807;48.682;9.032;2023-04-25T01:36:02;2.85;;;2.60;;
13469;SDS011;6807;48.682;9.032;2023-04-25T01:38:31;4.57;;;3.08;;
13469;SDS011;6807;48.682;9.032;2023-04-25T01:40:58;4.97;;;2.58;;
13469;SDS011;6807;48.682;9.032;2023-04-25T01:43:25;3.30;;;2.42;;
13469;SDS011;6807;48.682;9.032;2023-04-25T01:45:53;3.63;;;2.50;;
13469;SDS011;6807;48.682;9.032;2023-04-25T01:48:20;3.53;;;2.35;;
13469;SDS011;6807;48.682;9.032;2023-04-25T01:50:47;3.50;;;2.38;;
13469;SDS011;6807;48.682;9.032;2023-04-25T01:53:14;3.38;;;2.65;;
13469;SDS011;6807;48.682;9.032;2023-04-25T01:55:43;3.90;;;2.38;;
13469;SDS011;6807;48.682;9.032;2023-04-25T01:58:10;3.63;;;3.00;;
13469;SDS011;6807;48.682;9.032;2023-04-25T02:00:38;6.20;;;2.72;;
13469;SDS011;6807;48.682;9.032;2023-04-25T02:03:05;3.72;;;2.80;;
13469;SDS011;6807;48.682;9.032;2023-04-25T02:05:36;3.85;;;2.83;;
13469;SDS011;6807;48.682;9.032;2023-04-25T02:08:04;2.58;;;2.38;;
13469;SDS011;6807;48.682;9.032;2023-04-25T02:10:32;4.30;;;2.80;;
13469;SDS011;6807;48.682;9.032;2023-04-25T02:13:01;3.08;;;2.70;;
13469;SDS011;6807;48.682;9.032;2023-04-25T02:15:29;4.28;;;3.22;;
13469;SDS011;6807;48.682;9.032;2023-04-25T02:17:56;3.03;;;2.72;;
13469;SDS011;6807;48.682;9.032;2023-04-25T02:20:25;3.67;;;2.83;;
13469;SDS011;6807;48.682;9.032;2023-04-25T02:22:53;6.22;;;2.90;;
13469;SDS011;6807;48.682;9.032;2023-04-25T02:25:20;4.45;;;3.08;;
13469;SDS011;6807;48.682;9.032;2023-04-25T02:27:49;3.78;;;3.30;;
13469;SDS011;6807;48.682;9.032;2023-04-25T02:30:18;4.25;;;3.20;;
13469;SDS011;6807;48.682;9.032;2023-04-25T02:32:45;5.20;;;3.47;;
13469;SDS011;6807;48.682;9.032;2023-04-25T02:35:12;5.88;;;3.33;;
13469;SDS011;6807;48.682;9.032;2023-04-25T02:37:39;4.85;;;3.42;;
13469;SDS011;6807;48.682;9.032;2023-04-25T02:40:07;4.32;;;3.28;;
13469;SDS011;6807;48.682;9.032;2023-04-25T02:42:34;4.85;;;3.30;;
13469;SDS011;6807;48.682;9.032;2023-04-25T02:45:01;4.00;;;2.55;;
13469;SDS011;6807;48.682;9.032;2023-04-25T02:47:30;5.72;;;3.60;;
13469;SDS011;6807;48.682;9.032;2023-04-25T02:49:57;3.38;;;3.08;;
13469;SDS011;6807;48.682;9.032;2023-04-25T02:52:24;5.15;;;3.05;;
13469;SDS011;6807;48.682;9.032;2023-04-25T02:54:51;4.68;;;2.85;;
13469;SDS011;6807;48.682;9.032;2023-04-25T02:57:18;3.13;;;2.78;;
13469;SDS011;6807;48.682;9.032;2023-04-25T02:59:45;5.03;;;2.90;;
13469;SDS011;6807;48.682;9.032;2023-04-25T03:02:12;4.13;;;2.78;;
13469;SDS011;6807;48.682;9.032;2023-04-25T03:04:40;3.78;;;2.88;;
13469;SDS011;6807;48.682;9.032;2023-04-25T03:07:07;3.40;;;3.10;;
13469;SDS011;6807;48.682;9.032;2023-04-25T03:09:34;3.50;;;3.13;;
13469;SDS011;6807;48.682;9.032;2023-04-25T03:12:01;4.10;;;3.10;;
13469;SDS011;6807;48.682;9.032;2023-04-25T03:14:28;3.10;;;2.80;;
13469;SDS011;6807;48.682;9.032;2023-04-25T03:16:55;3.35;;;3.05;;
13469;SDS011;6807;48.682;9.032;2023-04-25T03:19:22;3.40;;;3.08;;
13469;SDS011;6807;48.682;9.032;2023-04-25T03:21:50;4.60;;;3.13;;
13469;SDS011;6807;48.682;9.032;2023-04-25T03:24:18;3.83;;;2.70;;
13469;SDS011;6807;48.682;9.032;2023-04-25T03:26:45;3.30;;;3.00;;
13469;SDS011;6807;48.682;9.032;2023-04-25T03:29:12;4.90;;;3.22;;
13469;SDS011;6807;48.682;9.032;2023-04-25T03:31:39;3.40;;;3.03;;
13469;SDS011;6807;48.682;9.032;2023-04-25T03:34:06;7.50;;;3.15;;
13469;SDS011;6807;48.682;9.032;2023-04-25T03:36:33;3.90;;;3.25;;
13469;SDS011;6807;48.682;9.032;2023-04-25T03:39:01;3.28;;;2.97;;
13469;SDS011;6807;48.682;9.032;2023-04-25T03:41:28;3.63;;;3.17;;
13469;SDS011;6807;48.682;9.032;2023-04-25T03:43:55;5.22;;;3.00;;
13469;SDS011;6807;48.682;9.032;2023-04-25T03:46:22;4.03;;;3.00;;
13469;SDS011;6807;48.682;9.032;2023-04-25T03:48:49;4.20;;;3.70;;
13469;SDS011;6807;48.682;9.032;2023-04-25T03:51:15;4.47;;;3.92;;
13469;SDS011;6807;48.682;9.032;2023-04-25T03:53:42;5.95;;;4.78;;
13469;SDS011;6807;48.682;9.032;2023-04-25T03:56:11;5.18;;;3.88;;
13469;SDS011;6807;48.682;9.032;2023-04-25T03:58:37;5.20;;;3.78;;
13469;SDS011;6807;48.682;9.032;2023-04-25T04:01:04;4.90;;;3.30;;
13469;SDS011;6807;48.682;9.032;2023-04-25T04:03:32;4.70;;;3.15;;
13469;SDS011;6807;48.682;9.032;2023-04-25T04:06:00;7.72;;;3.55;;
13469;SDS011;6807;48.682;9.032;2023-04-25T04:08:28;5.00;;;3.50;;
13469;SDS011;6807;48.682;9.032;2023-04-25T04:10:55;3.33;;;3.03;;
13469;SDS011;6807;48.682;9.032;2023-04-25T04:13:25;3.33;;;2.85;;
13469;SDS011;6807;48.682;9.032;2023-04-25T04:15:52;4.07;;;3.08;;
13469;SDS011;6807;48.682;9.032;2023-04-25T04:18:18;3.72;;;3.00;;
13469;SDS011;6807;48.682;9.032;2023-04-25T04:20:45;4.28;;;3.30;;
13469;SDS011;6807;48.682;9.032;2023-04-25T04:23:12;5.88;;;3.30;;
13469;SDS011;6807;48.682;9.032;2023-04-25T04:25:39;5.70;;;3.33;;
13469;SDS011;6807;48.682;9.032;2023-04-25T04:28:06;4.50;;;3.58;;
13469;SDS011;6807;48.682;9.032;2023-04-25T04:30:35;7.50;;;4.05;;
13469;SDS011;6807;48.682;9.032;2023-04-25T04:33:02;4.88;;;3.40;;
13469;SDS011;6807;48.682;9.032;2023-04-25T04:35:29;4.70;;;3.53;;
13469;SDS011;6807;48.682;9.032;2023-04-25T04:37:56;6.10;;;3.30;;
13469;SDS011;6807;48.682;9.032;2023-04-25T04:40:23;6.35;;;3.53;;
13469;SDS011;6807;48.682;9.032;2023-04-25T04:42:51;8.10;;;3.70;;
13469;SDS011;6807;48.682;9.032;2023-04-25T04:45:21;6.88;;;3.70;;
13469;SDS011;6807;48.682;9.032;2023-04-25T04:47:50;4.38;;;3.65;;
13469;SDS011;6807;48.682;9.032;2023-04-25T04:50:17;5.20;;;3.65;;
13469;SDS011;6807;48.682;9.032;2023-04-25T04:52:44;4.40;;;3.70;;
13469;SDS011;6807;48.682;9.032;2023-04-25T04:55:11;5.45;;;3.53;;
13469;SDS011;6807;48.682;9.032;2023-04-25T04:57:38;3.70;;;3.30;;
13469;SDS011;6807;48.682;9.032;2023-04-25T05:00:05;4.05;;;3.20;;
13469;SDS011;6807;48.682;9.032;2023-04-25T05:02:36;5.47;;;3.60;;
13469;SDS011;6807;48.682;9.032;2023-04-25T05:05:05;3.90;;;3.50;;
13469;SDS011;6807;48.682;9.032;2023-04-25T05:07:34;5.47;;;3.38;;
13469;SDS011;6807;48.682;9.032;2023-04-25T05:10:01;4.47;;;3.20;;
13469;SDS011;6807;48.682;9.032;2023-04-25T05:12:29;4.72;;;3.00;;
13469;SDS011;6807;48.682;9.032;2023-04-25T05:14:56;3.95;;;3.22;;
13469;SDS011;6807;48.682;9.032;2023-04-25T05:17:24;4.05;;;3.40;;
13469;SDS011;6807;48.682;9.032;2023-04-25T05:19:52;5.25;;;3.20;;
13469;SDS011;6807;48.682;9.032;2023-04-25T05:22:20;4.72;;;3.17;;
13469;SDS011;6807;48.682;9.032;2023-04-25T05:24:47;4.35;;;3.75;;
13469;SDS011;6807;48.682;9.032;2023-04-25T05:27:15;6.68;;;4.07;;
13469;SDS011;6807;48.682;9.032;2023-04-25T05:29:42;6.63;;;3.55;;
13469;SDS011;6807;48.682;9.032;2023-04-25T05:32:09;4.43;;;3.67;;
13469;SDS011;6807;48.682;9.032;2023-04-25T05:34:36;3.80;;;3.40;;
13469;SDS011;6807;48.682;9.032;2023-04-25T05:37:03;6.78;;;3.95;;
13469;SDS011;6807;48.682;9.032;2023-04-25T05:39:31;5.10;;;3.28;;
13469;SDS011;6807;48.682;9.032;2023-04-25T05:41:58;4.00;;;3.55;;
13469;SDS011;6807;48.682;9.032;2023-04-25T05:44:26;4.47;;;3.50;;
13469;SDS011;6807;48.682;9.032;2023-04-25T05:46:53;4.78;;;3.58;;
13469;SDS011;6807;48.682;9.032;2023-04-25T05:49:20;5.63;;;3.40;;
13469;SDS011;6807;48.682;9.032;2023-04-25T05:51:47;4.78;;;3.92;;
13469;SDS011;6807;48.682;9.032;2023-04-25T05:54:14;4.22;;;3.55;;
13469;SDS011;6807;48.682;9.032;2023-04-25T05:56:42;5.60;;;3.60;;
13469;SDS011;6807;48.682;9.032;2023-04-25T05:59:09;6.65;;;3.47;;
13469;SDS011;6807;48.682;9.032;2023-04-25T06:01:36;6.43;;;4.40;;
13469;SDS011;6807;48.682;9.032;2023-04-25T06:04:03;5.45;;;4.40;;
13469;SDS011;6807;48.682;9.032;2023-04-25T06:06:30;5.50;;;3.60;;
13469;SDS011;6807;48.682;9.032;2023-04-25T06:08:57;7.70;;;3.97;;
13469;SDS011;6807;48.682;9.032;2023-04-25T06:11:24;6.13;;;4.18;;
13469;SDS011;6807;48.682;9.032;2023-04-25T06:13:52;5.90;;;3.70;;
13469;SDS011;6807;48.682;9.032;2023-04-25T06:16:19;9.82;;;3.88;;
13469;SDS011;6807;48.682;9.032;2023-04-25T06:18:46;6.43;;;3.78;;
13469;SDS011;6807;48.682;9.032;2023-04-25T06:21:13;6.05;;;3.95;;
13469;SDS011;6807;48.682;9.032;2023-04-25T06:23:40;5.72;;;3.80;;
13469;SDS011;6807;48.682;9.032;2023-04-25T06:26:07;7.18;;;4.25;;
13469;SDS011;6807;48.682;9.032;2023-04-25T06:28:34;5.85;;;3.72;;
13469;SDS011;6807;48.682;9.032;2023-04-25T06:31:02;4.88;;;3.80;;
13469;SDS011;6807;48.682;9.032;2023-04-25T06:33:29;4.65;;;4.15;;
13469;SDS011;6807;48.682;9.032;2023-04-25T06:35:56;4.82;;;3.63;;
13469;SDS011;6807;48.682;9.032;2023-04-25T06:38:23;5.50;;;3.72;;
13469;SDS011;6807;48.682;9.032;2023-04-25T06:40:50;4.47;;;3.70;;
13469;SDS011;6807;48.682;9.032;2023-04-25T06:43:17;4.53;;;4.13;;
13469;SDS011;6807;48.682;9.032;2023-04-25T06:45:44;5.30;;;3.88;;
13469;SDS011;6807;48.682;9.032;2023-04-25T06:48:12;4.82;;;3.65;;
13469;SDS011;6807;48.682;9.032;2023-04-25T06:50:39;5.93;;;4.00;;
13469;SDS011;6807;48.682;9.032;2023-04-25T06:53:06;3.90;;;3.60;;
13469;SDS011;6807;48.682;9.032;2023-04-25T06:55:33;6.60;;;3.72;;
13469;SDS011;6807;48.682;9.032;2023-04-25T06:58:00;4.88;;;4.38;;
13469;SDS011;6807;48.682;9.032;2023-04-25T07:00:28;5.03;;;4.15;;
13469;SDS011;6807;48.682;9.032;2023-04-25T07:02:55;6.55;;;3.97;;
13469;SDS011;6807;48.682;9.032;2023-04-25T07:05:23;5.43;;;4.10;;
13469;SDS011;6807;48.682;9.032;2023-04-25T07:07:50;5.15;;;4.25;;
13469;SDS011;6807;48.682;9.032;2023-04-25T07:10:17;4.80;;;4.38;;
13469;SDS011;6807;48.682;9.032;2023-04-25T07:12:44;4.75;;;4.30;;
13469;SDS011;6807;48.682;9.032;2023-04-25T07:15:12;5.70;;;4.25;;
13469;SDS011;6807;48.682;9.032;2023-04-25T07:17:39;5.20;;;4.70;;
13469;SDS011;6807;48.682;9.032;2023-04-25T07:20:06;4.43;;;3.90;;
13469;SDS011;6807;48.682;9.032;2023-04-25T07:22:36;4.43;;;4.03;;
13469;SDS011;6807;48.682;9.032;2023-04-25T07:25:03;4.40;;;3.92;;
13469;SDS011;6807;48.682;9.032;2023-04-25T07:27:31;4.70;;;3.85;;
13469;SDS011;6807;48.682;9.032;2023-04-25T07:29:58;7.70;;;4.47;;
13469;SDS011;6807;48.682;9.032;2023-04-25T07:32:25;4.55;;;4.05;;
13469;SDS011;6807;48.682;9.032;2023-04-25T07:34:52;6.05;;;4.15;;
13469;SDS011;6807;48.682;9.032;2023-04-25T07:37:20;5.72;;;4.65;;
13469;SDS011;6807;48.682;9.032;2023-04-25T07:39:48;9.45;;;4.80;;
13469;SDS011;6807;48.682;9.032;2023-04-25T07:42:15;5.05;;;4.20;;
13469;SDS011;6807;48.682;9.032;2023-04-25T07:44:44;6.57;;;4.18;;
13469;SDS011;6807;48.682;9.032;2023-04-25T07:47:10;6.05;;;4.03;;
13469;SDS011;6807;48.682;9.032;2023-04-25T07:49:38;4.50;;;4.10;;
13469;SDS011;6807;48.682;9.032;2023-04-25T07:52:05;6.50;;;4.07;;
13469;SDS011;6807;48.682;9.032;2023-04-25T07:54:32;4.47;;;3.58;;
13469;SDS011;6807;48.682;9.032;2023-04-25T07:57:01;4.90;;;4.22;;
13469;SDS011;6807;48.682;9.032;2023-04-25T07:59:28;5.35;;;4.65;;
13469;SDS011;6807;48.682;9.032;2023-04-25T08:01:55;5.85;;;4.60;;
13469;SDS011;6807;48.682;9.032;2023-04-25T08:04:23;5.53;;;4.68;;
13469;SDS011;6807;48.682;9.032;2023-04-25T08:06:50;6.05;;;5.22;;
13469;SDS011;6807;48.682;9.032;2023-04-25T08:09:17;5.30;;;4.38;;
13469;SDS011;6807;48.682;9.032;2023-04-25T08:11:45;5.50;;;4.47;;
13469;SDS011;6807;48.682;9.032;2023-04-25T08:14:13;5.07;;;4.35;;
13469;SDS011;6807;48.682;9.032;2023-04-25T08:16:41;4.95;;;4.45;;
13469;SDS011;6807;48.682;9.032;2023-04-25T08:19:10;4.97;;;3.70;;
13469;SDS011;6807;48.682;9.032;2023-04-25T08:21:38;7.75;;;4.22;;
13469;SDS011;6807;48.682;9.032;2023-04-25T08:24:06;5.53;;;4.18;;
13469;SDS011;6807;48.682;9.032;2023-04-25T08:26:33;5.05;;;4.20;;
13469;SDS011;6807;48.682;9.032;2023-04-25T08:29:02;5.50;;;3.75;;
13469;SDS011;6807;48.682;9.032;2023-04-25T08:31:30;4.88;;;4.28;;
13469;SDS011;6807;48.682;9.032;2023-04-25T08:33:57;6.00;;;4.22;;
13469;SDS011;6807;48.682;9.032;2023-04-25T08:36:24;5.22;;;4.03;;
13469;SDS011;6807;48.682;9.032;2023-04-25T08:38:53;4.28;;;3.90;;
13469;SDS011;6807;48.682;9.032;2023-04-25T08:41:20;6.50;;;4.82;;
13469;SDS011;6807;48.682;9.032;2023-04-25T08:43:48;4.55;;;4.00;;
13469;SDS011;6807;48.682;9.032;2023-04-25T08:46:17;5.53;;;4.65;;
13469;SDS011;6807;48.682;9.032;2023-04-25T08:48:46;5.72;;;4.70;;
13469;SDS011;6807;48.682;9.032;2023-04-25T08:51:15;6.35;;;4.88;;
13469;SDS011;6807;48.682;9.032;2023-04-25T08:53:48;4.55;;;4.03;;
13469;SDS011;6807;48.682;9.032;2023-04-25T08:56:17;5.43;;;4.70;;
13469;SDS011;6807;48.682;9.032;2023-04-25T08:58:47;4.80;;;4.30;;
13469;SDS011;6807;48.682;9.032;2023-04-25T09:01:15;4.85;;;3.88;;
13469;SDS011;6807;48.682;9.032;2023-04-25T09:03:43;4.32;;;3.92;;
13469;SDS011;6807;48.682;9.032;2023-04-25T09:06:13;6.45;;;4.65;;
13469;SDS011;6807;48.682;9.032;2023-04-25T09:08:41;4.95;;;4.55;;
13469;SDS011;6807;48.682;9.032;2023-04-25T09:11:09;4.78;;;4.20;;
13469;SDS011;6807;48.682;9.032;2023-04-25T09:13:36;5.60;;;4.82;;
13469;SDS011;6807;48.682;9.032;2023-04-25T09:16:03;4.85;;;4.35;;
13469;SDS011;6807;48.682;9.032;2023-04-25T09:18:32;4.30;;;3.90;;
13469;SDS011;6807;48.682;9.032;2023-04-25T09:21:04;5.85;;;3.78;;
13469;SDS011;6807;48.682;9.032;2023-04-25T09:23:39;4.60;;;3.90;;
13469;SDS011;6807;48.682;9.032;2023-04-25T09:26:08;4.70;;;4.10;;
13469;SDS011;6807;48.682;9.032;2023-04-25T09:28:35;4.30;;;3.42;;
13469;SDS011;6807;48.682;9.032;2023-04-25T09:31:03;3.88;;;3.47;;
13469;SDS011;6807;48.682;9.032;2023-04-25T09:33:32;4.40;;;3.55;;
13469;SDS011;6807;48.682;9.032;2023-04-25T09:36:02;3.80;;;3.50;;
13469;SDS011;6807;48.682;9.032;2023-04-25T09:38:30;3.75;;;3.45;;
13469;SDS011;6807;48.682;9.032;2023-04-25T09:41:00;4.53;;;2.88;;
13469;SDS011;6807;48.682;9.032;2023-04-25T09:43:27;2.90;;;2.70;;
13469;SDS011;6807;48.682;9.032;2023-04-25T09:45:54;3.25;;;2.85;;
13469;SDS011;6807;48.682;9.032;2023-04-25T09:48:24;3.00;;;2.80;;
13469;SDS011;6807;48.682;9.032;2023-04-25T09:53:40;4.18;;;3.00;;
13469;SDS011;6807;48.682;9.032;2023-04-25T09:56:10;2.75;;;2.47;;
13469;SDS011;6807;48.682;9.032;2023-04-25T09:58:38;7.13;;;5.35;;
13469;SDS011;6807;48.682;9.032;2023-04-25T10:01:06;9.23;;;6.43;;
13469;SDS011;6807;48.682;9.032;2023-04-25T10:03:35;1.90;;;1.80;;
13469;SDS011;6807;48.682;9.032;2023-04-25T10:06:06;1.70;;;1.60;;
13469;SDS011;6807;48.682;9.032;2023-04-25T10:08:36;1.83;;;1.73;;
13469;SDS011;6807;48.682;9.032;2023-04-25T10:11:04;1.90;;;1.80;;
13469;SDS011;6807;48.682;9.032;2023-04-25T10:13:34;3.15;;;1.77;;
13469;SDS011;6807;48.682;9.032;2023-04-25T10:16:03;1.65;;;1.55;;
13469;SDS011;6807;48.682;9.032;2023-04-25T10:18:31;1.50;;;1.40;;
13469;SDS011;6807;48.682;9.032;2023-04-25T10:20:59;3.28;;;1.67;;
13469;SDS011;6807;48.682;9.032;2023-04-25T10:23:27;1.50;;;1.40;;
13469;SDS011;6807;48.682;9.032;2023-04-25T10:25:59;1.50;;;1.40;;
13469;SDS011;6807;48.682;9.032;2023-04-25T10:28:26;1.73;;;1.63;;
13469;SDS011;6807;48.682;9.032;2023-04-25T10:30:59;1.48;;;1.38;;
13469;SDS011;6807;48.682;9.032;2023-04-25T10:33:34;1.48;;;1.38;;
13469;SDS011;6807;48.682;9.032;2023-04-25T10:36:08;1.88;;;1.77;;
13469;SDS011;6807;48.682;9.032;2023-04-25T10:38:36;1.65;;;1.55;;
13469;SDS011;6807;48.682;9.032;2023-04-25T10:41:04;2.10;;;2.00;;
13469;SDS011;6807;48.682;9.032;2023-04-25T10:43:34;1.55;;;1.45;;
13469;SDS011;6807;48.682;9.032;2023-04-25T10:46:04;2.08;;;1.60;;
13469;SDS011;6807;48.682;9.032;2023-04-25T10:48:43;1.30;;;1.20;;
13469;SDS011;6807;48.682;9.032;2023-04-25T10:51:15;1.50;;;1.40;;
13469;SDS011;6807;48.682;9.032;2023-04-25T10:53:44;1.48;;;1.38;;
13469;SDS011;6807;48.682;9.032;2023-04-25T10:56:11;2.42;;;1.48;;
13469;SDS011;6807;48.682;9.032;2023-04-25T10:58:43;1.50;;;1.40;;
13469;SDS011;6807;48.682;9.032;2023-04-25T11:01:13;1.58;;;1.48;;
13469;SDS011;6807;48.682;9.032;2023-04-25T11:03:42;1.48;;;1.38;;
13469;SDS011;6807;48.682;9.032;2023-04-25T11:06:18;1.85;;;1.50;;
13469;SDS011;6807;48.682;9.032;2023-04-25T11:08:49;1.40;;;1.30;;
13469;SDS011;6807;48.682;9.032;2023-04-25T11:11:19;1.52;;;1.35;;
13469;SDS011;6807;48.682;9.032;2023-04-25T11:13:47;1.60;;;1.50;;
13469;SDS011;6807;48.682;9.032;2023-04-25T11:16:16;1.83;;;1.40;;
13469;SDS011;6807;48.682;9.032;2023-04-25T11:18:43;1.58;;;1.30;;
13469;SDS011;6807;48.682;9.032;2023-04-25T11:21:11;1.50;;;1.40;;
13469;SDS011;6807;48.682;9.032;2023-04-25T11:23:45;1.52;;;1.42;;
13469;SDS011;6807;48.682;9.032;2023-04-25T11:26:12;1.30;;;1.20;;
13469;SDS011;6807;48.682;9.032;2023-04-25T11:28:40;1.60;;;1.50;;
13469;SDS011;6807;48.682;9.032;2023-04-25T11:31:07;1.67;;;1.58;;
13469;SDS011;6807;48.682;9.032;2023-04-25T11:33:37;2.00;;;1.80;;
13469;SDS011;6807;48.682;9.032;2023-04-25T11:36:06;2.78;;;1.75;;
13469;SDS011;6807;48.682;9.032;2023-04-25T11:38:33;3.90;;;2.45;;
13469;SDS011;6807;48.682;9.032;2023-04-25T11:41:02;3.53;;;3.22;;
13469;SDS011;6807;48.682;9.032;2023-04-25T11:43:36;2.85;;;2.65;;
13469;SDS011;6807;48.682;9.032;2023-04-25T11:46:06;3.97;;;3.13;;
13469;SDS011;6807;48.682;9.032;2023-04-25T11:48:37;2.60;;;2.40;;
13469;SDS011;6807;48.682;9.032;2023-04-25T11:51:04;2.38;;;2.17;;
13469;SDS011;6807;48.682;9.032;2023-04-25T11:53:32;2.30;;;2.10;;
13469;SDS011;6807;48.682;9.032;2023-04-25T11:55:59;2.15;;;1.95;;
13469;SDS011;6807;48.682;9.032;2023-04-25T11:58:26;2.40;;;2.20;;
13469;SDS011;6807;48.682;9.032;2023-04-25T12:00:53;2.30;;;2.10;;
13469;SDS011;6807;48.682;9.032;2023-04-25T12:03:24;2.38;;;2.17;;
13469;SDS011;6807;48.682;9.032;2023-04-25T12:06:03;2.95;;;2.65;;
13469;SDS011;6807;48.682;9.032;2023-04-25T12:08:30;3.28;;;2.97;;
13469;SDS011;6807;48.682;9.032;2023-04-25T12:10:58;2.70;;;2.50;;
13469;SDS011;6807;48.682;9.032;2023-04-25T12:13:25;2.55;;;2.35;;
13469;SDS011;6807;48.682;9.032;2023-04-25T12:15:53;2.20;;;2.08;;
13469;SDS011;6807;48.682;9.032;2023-04-25T12:18:22;2.50;;;2.28;;
13469;SDS011;6807;48.682;9.032;2023-04-25T12:20:52;2.63;;;2.40;;
13469;SDS011;6807;48.682;9.032;2023-04-25T12:23:26;3.00;;;2.70;;
13469;SDS011;6807;48.682;9.032;2023-04-25T12:25:55;3.47;;;3.17;;
13469;SDS011;6807;48.682;9.032;2023-04-25T12:28:27;3.10;;;2.88;;
13469;SDS011;6807;48.682;9.032;2023-04-25T12:30:57;3.17;;;2.88;;
13469;SDS011;6807;48.682;9.032;2023-04-25T12:33:26;3.33;;;3.03;;
13469;SDS011;6807;48.682;9.032;2023-04-25T12:35:54;3.83;;;3.40;;
13469;SDS011;6807;48.682;9.032;2023-04-25T12:38:23;4.70;;;4.05;;
13469;SDS011;6807;48.682;9.032;2023-04-25T12:40:53;4.65;;;3.83;;
13469;SDS011;6807;48.682;9.032;2023-04-25T12:43:21;5.43;;;4.93;;
13469;SDS011;6807;48.682;9.032;2023-04-25T12:45:49;4.93;;;4.07;;
13469;SDS011;6807;48.682;9.032;2023-04-25T12:48:19;5.55;;;3.95;;
13469;SDS011;6807;48.682;9.032;2023-04-25T12:50:46;4.82;;;4.15;;
13469;SDS011;6807;48.682;9.032;2023-04-25T12:53:14;4.72;;;3.92;;
13469;SDS011;6807;48.682;9.032;2023-04-25T12:55:43;6.15;;;4.30;;
13469;SDS011;6807;48.682;9.032;2023-04-25T12:58:11;4.47;;;4.07;;
13469;SDS011;6807;48.682;9.032;2023-04-25T13:00:41;4.40;;;3.97;;
13469;SDS011;6807;48.682;9.032;2023-04-25T13:03:08;4.90;;;4.40;;
13469;SDS011;6807;48.682;9.032;2023-04-25T13:05:36;5.97;;;4.93;;
13469;SDS011;6807;48.682;9.032;2023-04-25T13:08:03;5.85;;;5.00;;
13469;SDS011;6807;48.682;9.032;2023-04-25T13:10:30;5.40;;;4.90;;
13469;SDS011;6807;48.682;9.032;2023-04-25T13:13:00;5.60;;;4.95;;
13469;SDS011;6807;48.682;9.032;2023-04-25T13:15:27;5.10;;;4.45;;
13469;SDS011;6807;48.682;9.032;2023-04-25T13:17:55;6.75;;;4.63;;
13469;SDS011;6807;48.682;9.032;2023-04-25T13:20:22;4.65;;;3.83;;
13469;SDS011;6807;48.682;9.032;2023-04-25T13:22:49;5.38;;;4.88;;
13469;SDS011;6807;48.682;9.032;2023-04-25T13:25:16;6.18;;;5.20;;
13469;SDS011;6807;48.682;9.032;2023-04-25T13:27:43;5.60;;;4.72;;
13469;SDS011;6807;48.682;9.032;2023-04-25T13:30:13;6.10;;;4.93;;
13469;SDS011;6807;48.682;9.032;2023-04-25T13:32:40;5.25;;;4.75;;
13469;SDS011;6807;48.682;9.032;2023-04-25T13:35:07;4.78;;;4.28;;
13469;SDS011;6807;48.682;9.032;2023-04-25T13:37:36;6.43;;;5.65;;
13469;SDS011;6807;48.682;9.032;2023-04-25T13:40:04;7.50;;;5.60;;
13469;SDS011;6807;48.682;9.032;2023-04-25T13:42:34;7.30;;;5.43;;
13469;SDS011;6807;48.682;9.032;2023-04-25T13:45:01;6.30;;;5.45;;
13469;SDS011;6807;48.682;9.032;2023-04-25T13:47:30;7.65;;;5.82;;
13469;SDS011;6807;48.682;9.032;2023-04-25T13:49:57;6.07;;;5.18;;
13469;SDS011;6807;48.682;9.032;2023-04-25T13:52:25;6.53;;;5.45;;
13469;SDS011;6807;48.682;9.032;2023-04-25T13:54:52;6.57;;;4.90;;
13469;SDS011;6807;48.682;9.032;2023-04-25T13:57:19;5.97;;;5.30;;
13469;SDS011;6807;48.682;9.032;2023-04-25T13:59:46;7.47;;;5.57;;
13469;SDS011;6807;48.682;9.032;2023-04-25T14:02:13;6.93;;;5.80;;
13469;SDS011;6807;48.682;9.032;2023-04-25T14:04:42;6.00;;;5.47;;
13469;SDS011;6807;48.682;9.032;2023-04-25T14:07:11;7.25;;;5.70;;
13469;SDS011;6807;48.682;9.032;2023-04-25T14:09:41;6.03;;;5.32;;
13469;SDS011;6807;48.682;9.032;2023-04-25T14:12:08;7.55;;;6.03;;
13469;SDS011;6807;48.682;9.032;2023-04-25T14:14:35;6.85;;;5.63;;
13469;SDS011;6807;48.682;9.032;2023-04-25T14:17:02;6.93;;;5.25;;
13469;SDS011;6807;48.682;9.032;2023-04-25T14:19:30;6.05;;;5.45;;
13469;SDS011;6807;48.682;9.032;2023-04-25T14:21:58;6.38;;;5.78;;
13469;SDS011;6807;48.682;9.032;2023-04-25T14:24:25;7.20;;;5.30;;
13469;SDS011;6807;48.682;9.032;2023-04-25T14:26:52;5.60;;;4.80;;
13469;SDS011;6807;48.682;9.032;2023-04-25T14:29:20;6.07;;;4.32;;
13469;SDS011;6807;48.682;9.032;2023-04-25T14:31:48;4.97;;;4.47;;
13469;SDS011;6807;48.682;9.032;2023-04-25T14:34:15;6.85;;;4.63;;
13469;SDS011;6807;48.682;9.032;2023-04-25T14:36:42;6.95;;;4.80;;
13469;SDS011;6807;48.682;9.032;2023-04-25T14:39:10;6.50;;;4.93;;
13469;SDS011;6807;48.682;9.032;2023-04-25T14:41:37;4.93;;;4.38;;
13469;SDS011;6807;48.682;9.032;2023-04-25T14:44:07;6.65;;;4.82;;
13469;SDS011;6807;48.682;9.032;2023-04-25T14:46:34;6.57;;;4.97;;
13469;SDS011;6807;48.682;9.032;2023-04-25T14:49:03;4.43;;;3.63;;
13469;SDS011;6807;48.682;9.032;2023-04-25T14:51:31;5.38;;;4.40;;
13469;SDS011;6807;48.682;9.032;2023-04-25T14:53:58;4.20;;;3.80;;
13469;SDS011;6807;48.682;9.032;2023-04-25T14:56:26;4.95;;;4.25;;
13469;SDS011;6807;48.682;9.032;2023-04-25T14:58:53;5.40;;;3.80;;
13469;SDS011;6807;48.682;9.032;2023-04-25T15:01:21;4.07;;;3.47;;
13469;SDS011;6807;48.682;9.032;2023-04-25T15:03:48;4.28;;;3.28;;
13469;SDS011;6807;48.682;9.032;2023-04-25T15:06:16;4.30;;;3.42;;